createdAt,value
2022-08-23T00:00:22.898Z,241.03
2022-08-23T00:10:29.090Z,237.83
2022-08-23T00:20:34.567Z,242.13
2022-08-23T00:30:39.261Z,239.23
2022-08-23T00:40:47.479Z,239.40
2022-08-23T00:50:59.081Z,236.70
2022-08-23T01:01:06.333Z,242.30
2022-08-23T01:11:20.441Z,249.27
2022-08-23T01:21:36.577Z,246.57
2022-08-23T01:31:46.449Z,245.67
2022-08-23T01:41:51.548Z,245.27
2022-08-23T01:51:57.266Z,241.80
2022-08-23T02:02:01.937Z,251.17
2022-08-23T02:12:07.772Z,240.20
2022-08-23T02:22:13.451Z,241.40
2022-08-23T02:32:20.487Z,234.77
2022-08-23T02:42:24.713Z,242.67
2022-08-23T02:52:30.081Z,235.63
2022-08-23T03:02:33.864Z,242.30
2022-08-23T03:12:40.186Z,234.10
2022-08-23T03:22:48.369Z,231.70
2022-08-23T03:33:00.619Z,237.80
2022-08-23T03:43:06.372Z,237.43
2022-08-23T03:53:13.179Z,241.30
2022-08-23T04:03:19.239Z,247.07
2022-08-23T04:13:39.851Z,243.03
2022-08-23T04:23:44.751Z,248.57
2022-08-23T04:33:52.707Z,233.90
2022-08-23T04:43:57.511Z,246.47
2022-08-23T04:54:05.777Z,242.07
2022-08-23T05:04:19.831Z,244.20
2022-08-23T05:14:25.344Z,244.60
2022-08-23T05:24:29.419Z,245.53
2022-08-23T05:34:34.927Z,238.80
2022-08-23T05:44:46.450Z,243.23
2022-08-23T05:54:53.932Z,247.67
2022-08-23T06:05:14.028Z,249.13
2022-08-23T06:15:20.716Z,244.47
2022-08-23T06:25:25.355Z,255.23
2022-08-23T06:35:39.210Z,247.63
2022-08-23T06:46:14.451Z,246.50
2022-08-23T06:56:23.483Z,259.93
2022-08-23T07:06:40.901Z,243.57
2022-08-23T07:16:50.180Z,233.47
2022-08-23T07:26:54.273Z,248.50
2022-08-23T07:37:01.764Z,236.80
2022-08-23T07:47:06.895Z,246.53
2022-08-23T07:57:12.303Z,243.00
2022-08-23T08:07:42.122Z,241.70
2022-08-23T08:17:48.999Z,230.23
2022-08-23T08:27:52.548Z,234.33
2022-08-23T08:37:58.240Z,241.30
2022-08-23T08:48:13.172Z,239.00
2022-08-23T08:58:47.432Z,238.67
2022-08-23T09:09:12.073Z,251.30
2022-08-23T09:19:17.742Z,255.82
2022-08-23T09:29:27.851Z,250.43
2022-08-23T09:39:34.732Z,289.80
2022-08-23T09:49:48.452Z,275.52
2022-08-23T09:59:56.194Z,286.17
2022-08-23T10:10:25.720Z,286.35
2022-08-23T10:20:42.216Z,275.05
2022-08-23T10:30:55.174Z,287.05
2022-08-23T10:41:13.902Z,271.42
2022-08-23T10:51:31.480Z,271.65
2022-08-23T11:01:50.602Z,268.15
2022-08-23T11:12:17.530Z,273.77
2022-08-23T11:22:25.646Z,261.85
2022-08-23T11:32:44.362Z,261.00
2022-08-23T11:42:54.790Z,260.40
2022-08-23T11:53:32.464Z,252.60
2022-08-23T12:03:56.242Z,260.50
2022-08-23T12:14:03.813Z,228.77
2022-08-23T12:24:25.697Z,228.75
2022-08-23T12:34:38.770Z,248.30
2022-08-23T12:44:47.393Z,239.25
2022-08-23T12:54:55.165Z,240.48
2022-08-23T13:05:13.216Z,237.35
2022-08-23T13:15:48.396Z,245.38
2022-08-23T13:25:53.351Z,245.43
2022-08-23T13:36:13.846Z,259.42
2022-08-23T13:46:23.061Z,259.35
2022-08-23T13:56:28.918Z,281.42
2022-08-23T14:06:33.831Z,273.17
2022-08-23T14:16:40.103Z,274.40
2022-08-23T14:26:51.779Z,267.52
2022-08-23T14:47:21.697Z,240.82
2022-08-23T14:57:25.461Z,236.23
2022-08-23T15:07:30.861Z,227.10
2022-08-23T15:17:39.276Z,220.25
2022-08-23T15:27:45.768Z,219.48
2022-08-23T15:37:49.765Z,227.43
2022-08-23T15:47:58.937Z,220.65
2022-08-23T15:58:02.710Z,232.20
2022-08-23T16:08:10.221Z,233.02
2022-08-23T16:18:14.205Z,237.25
2022-08-23T16:28:19.410Z,238.30
2022-08-23T16:38:23.682Z,234.97
2022-08-23T17:39:43.558Z,236.37
2022-08-23T17:49:49.496Z,237.40
2022-08-23T17:59:55.269Z,245.50
2022-08-23T18:09:59.485Z,244.87
2022-08-23T18:20:06.300Z,241.30
2022-08-23T18:30:12.560Z,250.57
2022-08-23T18:40:17.608Z,247.23
2022-08-23T18:50:21.430Z,252.43
2022-08-23T19:00:26.658Z,259.47
2022-08-23T19:10:30.466Z,249.83
2022-08-23T19:20:37.333Z,256.03
2022-08-23T19:30:41.475Z,258.47
2022-08-23T19:40:47.330Z,256.50
2022-08-23T19:50:51.308Z,260.37
2022-08-23T20:00:56.598Z,258.37
2022-08-23T20:11:01.587Z,258.97
2022-08-23T20:21:06.878Z,262.37
2022-08-23T20:31:18.862Z,270.87
2022-08-23T20:41:23.849Z,267.83
2022-08-23T20:51:30.733Z,265.77
2022-08-23T21:01:42.005Z,267.17
2022-08-23T21:11:46.226Z,268.87
2022-08-23T21:21:51.401Z,262.90
2022-08-23T21:31:55.054Z,262.77
2022-08-23T21:42:00.685Z,264.63
2022-08-23T21:52:05.379Z,255.93
2022-08-23T22:02:11.078Z,268.07
2022-08-23T22:12:15.374Z,266.73
2022-08-23T22:22:20.373Z,259.53
2022-08-23T22:32:24.442Z,274.20
2022-08-23T22:42:29.611Z,267.43
2022-08-23T22:52:33.533Z,268.20
2022-08-23T23:02:38.988Z,264.33
2022-08-23T23:12:44.551Z,260.87
2022-08-23T23:22:51.543Z,261.30
2022-08-23T23:32:55.321Z,256.73
2022-08-23T23:43:00.572Z,265.47
2022-08-23T23:53:04.547Z,263.07
